Time;durP1;ratioP1;P1;durP2;ratioP2;P2;SDS_P1;SDS_P2;PMS_P1;PMS_P2;Temp;Humidity;BMP_temperature;BMP_pressure;BME280_temperature;BME280_humidity;BME280_pressure;Samples;Min_cycle;Max_cycle;Signal;HPM_P1;HPM_P2
2022/02/20 00:02:16;;;;;;;5.80;2.77;;;6.90;99.90;;;;;;4908842;29;20232;-86
2022/02/20 00:04:42;;;;;;;8.53;2.70;;;7.00;99.90;;;;;;4914038;29;20223;-84
2022/02/20 00:07:08;;;;;;;3.33;2.30;;;7.00;99.90;;;;;;4905671;29;20471;-86
2022/02/20 00:09:36;;;;;;;5.90;2.00;;;6.20;99.90;;;;;;4913895;29;20439;-86
2022/02/20 00:12:01;;;;;;;2.97;2.55;;;7.40;99.90;;;;;;4914355;29;20176;-86
2022/02/20 00:14:27;;;;;;;3.80;3.17;;;7.10;99.90;;;;;;4906415;29;20207;-86
2022/02/20 00:16:53;;;;;;;5.57;2.30;;;6.90;99.90;;;;;;4896259;29;20187;-84
2022/02/20 00:19:18;;;;;;;6.93;2.07;;;7.10;99.90;;;;;;4912071;29;20200;-85
2022/02/20 00:21:44;;;;;;;3.23;2.93;;;8.10;99.90;;;;;;4910258;29;20682;-85
2022/02/20 00:24:09;;;;;;;5.83;3.90;;;6.70;99.90;;;;;;4910852;29;20577;-85
2022/02/20 00:26:35;;;;;;;3.10;2.90;;;7.00;99.90;;;;;;4915115;29;20777;-88
2022/02/20 00:29:02;;;;;;;5.70;3.28;;;7.10;99.90;;;;;;4911479;29;20224;-85
2022/02/20 00:31:27;;;;;;;2.70;1.67;;;6.90;99.90;;;;;;4913393;29;20192;-86
2022/02/20 00:33:53;;;;;;;2.30;2.20;;;6.70;99.90;;;;;;4911218;29;20214;-85
2022/02/20 00:36:18;;;;;;;2.13;1.90;;;6.70;99.90;;;;;;4909859;29;20909;-85
2022/02/20 00:38:44;;;;;;;4.60;2.33;;;6.40;99.90;;;;;;4910932;29;20228;-86
2022/02/20 00:41:10;;;;;;;2.10;2.03;;;6.40;99.90;;;;;;4905075;29;20211;-86
2022/02/20 00:43:35;;;;;;;4.13;2.40;;;6.50;99.90;;;;;;4913372;29;20204;-87
2022/02/20 00:46:01;;;;;;;2.70;2.50;;;6.50;99.90;;;;;;4909250;29;20196;-86
2022/02/20 00:48:27;;;;;;;3.17;2.87;;;6.40;99.90;;;;;;4910190;29;20200;-85
2022/02/20 00:50:53;;;;;;;3.93;1.87;;;6.00;99.90;;;;;;4902771;29;20188;-84
2022/02/20 00:53:19;;;;;;;3.90;3.30;;;6.40;99.90;;;;;;4915066;29;20452;-86
2022/02/20 00:55:44;;;;;;;8.87;3.50;;;5.40;99.90;;;;;;4885589;29;20569;-86
2022/02/20 00:58:10;;;;;;;2.77;1.33;;;6.30;99.90;;;;;;4910685;29;20220;-86
2022/02/20 01:00:36;;;;;;;2.83;2.63;;;6.00;99.90;;;;;;4912090;29;20231;-87
2022/02/20 01:03:03;;;;;;;5.63;3.00;;;6.30;99.90;;;;;;4911010;29;20741;-85
2022/02/20 01:05:29;;;;;;;2.78;2.65;;;6.30;99.90;;;;;;4904209;29;20184;-86
2022/02/20 01:07:55;;;;;;;10.47;3.47;;;6.30;99.90;;;;;;4906287;29;20201;-86
2022/02/20 01:10:21;;;;;;;4.83;1.87;;;6.20;99.90;;;;;;4910461;29;20835;-86
2022/02/20 01:12:46;;;;;;;3.17;2.87;;;6.20;99.90;;;;;;4909307;29;20568;-85
2022/02/20 01:15:13;;;;;;;3.40;3.20;;;6.20;99.90;;;;;;4911462;29;20370;-86
2022/02/20 01:17:39;;;;;;;3.20;3.00;;;6.00;99.90;;;;;;4912044;29;20480;-85
2022/02/20 01:20:05;;;;;;;11.90;3.40;;;6.10;99.90;;;;;;4910733;29;20596;-87
2022/02/20 01:22:31;;;;;;;4.25;3.90;;;6.10;99.90;;;;;;4910279;29;20219;-86
2022/02/20 01:24:57;;;;;;;3.90;2.90;;;6.00;99.90;;;;;;4902459;29;20184;-84
2022/02/20 01:27:31;;;;;;;5.40;2.67;;;6.00;99.90;;;;;;4910071;29;20271;-86
2022/02/20 01:29:56;;;;;;;2.92;2.72;;;6.00;99.90;;;;;;4911648;29;20446;-84
2022/02/20 01:32:22;;;;;;;3.67;2.40;;;5.90;99.90;;;;;;4905057;29;20615;-86
2022/02/20 01:34:48;;;;;;;2.80;2.60;;;5.80;99.90;;;;;;4904055;29;20197;-82
2022/02/20 01:37:13;;;;;;;2.33;2.23;;;5.90;99.90;;;;;;4910764;29;20203;-87
2022/02/20 01:39:39;;;;;;;3.40;2.20;;;5.90;99.90;;;;;;4916063;29;20187;-86
2022/02/20 01:42:05;;;;;;;1.97;1.83;;;5.90;99.90;;;;;;4910335;29;20249;-84
2022/02/20 01:44:33;;;;;;;2.93;1.60;;;5.80;99.90;;;;;;4907350;29;20195;-85
2022/02/20 01:47:07;;;;;;;3.55;2.83;;;5.80;99.90;;;;;;4911602;29;20435;-86
2022/02/20 01:49:34;;;;;;;6.47;3.03;;;5.80;99.90;;;;;;4893223;29;20199;-89
2022/02/20 01:51:59;;;;;;;4.55;2.90;;;5.70;99.90;;;;;;4910593;29;20237;-85
2022/02/20 01:54:25;;;;;;;4.50;2.20;;;;;;;;;;4910347;29;20287;-87
2022/02/20 01:56:54;;;;;;;2.03;1.92;;;5.70;99.90;;;;;;4913308;29;20188;-85
2022/02/20 01:59:21;;;;;;;9.27;2.35;;;5.70;99.90;;;;;;4898404;29;20564;-87
2022/02/20 02:01:47;;;;;;;3.30;2.70;;;5.80;99.90;;;;;;4911524;29;20224;-87
2022/02/20 02:04:13;;;;;;;5.83;2.40;;;5.80;99.90;;;;;;4909429;29;20447;-85
2022/02/20 02:06:38;;;;;;;5.00;2.90;;;5.70;99.90;;;;;;4906679;29;20256;-86
2022/02/20 02:09:04;;;;;;;8.43;3.30;;;5.20;99.90;;;;;;4909159;29;20274;-86
2022/02/20 02:11:30;;;;;;;3.00;2.80;;;5.80;99.90;;;;;;4905719;29;20272;-86
2022/02/20 02:13:55;;;;;;;5.67;2.60;;;5.70;99.90;;;;;;4909009;29;20694;-86
2022/02/20 02:16:21;;;;;;;5.63;2.40;;;5.80;99.90;;;;;;4903059;29;20661;-85
2022/02/20 02:18:47;;;;;;;2.80;2.60;;;5.40;99.90;;;;;;4909584;29;20250;-86
2022/02/20 02:21:13;;;;;;;4.30;3.10;;;5.80;99.90;;;;;;4906197;29;21048;-86
2022/02/20 02:23:39;;;;;;;5.30;3.30;;;5.70;99.90;;;;;;4908725;29;20507;-86
2022/02/20 02:26:06;;;;;;;6.50;3.40;;;5.70;99.90;;;;;;4890782;29;20192;-85
2022/02/20 02:28:34;;;;;;;2.07;1.97;;;5.70;99.90;;;;;;4909197;29;20515;-84
2022/02/20 02:31:04;;;;;;;2.78;2.55;;;5.70;99.90;;;;;;4910946;29;20895;-84
2022/02/20 02:33:32;;;;;;;2.87;1.90;;;5.70;99.90;;;;;;4566449;29;10000037;-84
2022/02/20 02:35:59;;;;;;;3.20;2.40;;;5.70;99.90;;;;;;4907626;29;20176;-84
2022/02/20 02:38:26;;;;;;;4.47;3.42;;;5.70;99.90;;;;;;4906010;29;20800;-86
2022/02/20 02:41:12;;;;;;;3.50;2.83;;;5.70;99.90;;;;;;4908222;29;20195;-86
2022/02/20 02:43:39;;;;;;;8.48;3.92;;;5.80;99.90;;;;;;4903894;29;20325;-86
2022/02/20 02:46:06;;;;;;;3.05;2.33;;;5.80;99.90;;;;;;4907138;29;20682;-86
2022/02/20 02:48:32;;;;;;;2.88;2.65;;;5.90;99.90;;;;;;4905890;29;20188;-85
2022/02/20 02:51:01;;;;;;;2.35;2.35;;;5.70;99.90;;;;;;4907180;29;20255;-85
2022/02/20 02:53:27;;;;;;;2.60;2.40;;;5.60;99.90;;;;;;4905055;29;20219;-86
2022/02/20 02:55:53;;;;;;;2.30;2.10;;;5.80;99.90;;;;;;4890240;29;20444;-84
2022/02/20 02:58:19;;;;;;;3.80;2.53;;;5.80;99.90;;;;;;4903536;29;20204;-86
2022/02/20 03:00:45;;;;;;;2.92;2.72;;;5.80;99.90;;;;;;4906941;29;20657;-87
2022/02/20 03:03:11;;;;;;;3.25;2.83;;;5.20;99.90;;;;;;4904864;29;20746;-85
2022/02/20 03:05:37;;;;;;;4.10;3.50;;;5.50;99.90;;;;;;4906305;29;20180;-84
2022/02/20 03:08:03;;;;;;;5.63;2.67;;;5.70;99.90;;;;;;4907116;29;20255;-86
2022/02/20 03:10:29;;;;;;;3.70;2.90;;;5.80;99.90;;;;;;4910495;29;20176;-85
2022/02/20 03:12:54;;;;;;;5.40;2.63;;;5.80;99.90;;;;;;4908343;29;20377;-85
2022/02/20 03:15:20;;;;;;;4.40;3.03;;;5.70;99.90;;;;;;4905857;29;20417;-85
2022/02/20 03:17:46;;;;;;;2.20;2.10;;;5.80;99.90;;;;;;4905241;29;20206;-85
2022/02/20 03:20:12;;;;;;;3.50;3.27;;;5.80;99.90;;;;;;4905760;29;20173;-86
2022/02/20 03:22:38;;;;;;;3.77;3.37;;;5.90;99.90;;;;;;4904796;29;20567;-85
2022/02/20 03:25:05;;;;;;;5.13;3.33;;;5.80;99.90;;;;;;4908389;29;20251;-85
2022/02/20 03:27:30;;;;;;;3.33;3.22;;;5.80;99.90;;;;;;4904630;29;20437;-85
2022/02/20 03:29:56;;;;;;;7.60;3.67;;;5.80;99.90;;;;;;4907678;29;20285;-85
2022/02/20 03:32:22;;;;;;;5.50;3.70;;;5.80;99.90;;;;;;4889711;29;20676;-85
2022/02/20 03:34:47;;;;;;;3.30;3.00;;;5.70;99.90;;;;;;4911471;29;20698;-84
2022/02/20 03:37:13;;;;;;;3.70;3.40;;;5.70;99.90;;;;;;4913725;29;20203;-86
2022/02/20 03:39:38;;;;;;;10.47;4.67;;;5.70;99.90;;;;;;4912224;29;20192;-86
2022/02/20 03:42:04;;;;;;;3.37;2.80;;;5.70;99.90;;;;;;4913587;29;20230;-85
2022/02/20 03:44:29;;;;;;;4.73;2.63;;;5.70;99.90;;;;;;4894990;29;20682;-86
2022/02/20 03:46:55;;;;;;;2.30;2.20;;;5.60;99.90;;;;;;4896838;29;20780;-84
2022/02/20 03:49:21;;;;;;;3.70;2.27;;;5.70;99.90;;;;;;4911379;29;20279;-86
2022/02/20 03:51:46;;;;;;;3.73;2.50;;;5.70;99.90;;;;;;4910637;29;20236;-85
2022/02/20 03:54:12;;;;;;;6.80;2.47;;;5.70;99.90;;;;;;4909426;29;20279;-85
2022/02/20 03:56:37;;;;;;;3.60;2.40;;;5.20;99.90;;;;;;4910156;29;20278;-86
2022/02/20 03:59:03;;;;;;;2.20;2.10;;;5.60;99.90;;;;;;4910981;29;20596;-86
2022/02/20 04:01:29;;;;;;;6.60;1.77;;;5.60;99.90;;;;;;4913431;29;20325;-86
2022/02/20 04:03:55;;;;;;;1.70;1.20;;;5.60;99.90;;;;;;4912655;29;20211;-86
2022/02/20 04:06:20;;;;;;;1.70;1.60;;;5.70;99.90;;;;;;4915430;29;20559;-85
2022/02/20 04:08:46;;;;;;;7.27;2.10;;;5.70;99.90;;;;;;4913138;29;20600;-86
2022/02/20 04:11:11;;;;;;;3.17;1.90;;;5.60;99.90;;;;;;4913257;29;20238;-84
2022/02/20 04:13:37;;;;;;;6.80;2.37;;;5.50;99.90;;;;;;4894376;29;20255;-85
2022/02/20 04:16:04;;;;;;;2.17;1.77;;;5.10;99.90;;;;;;4912935;29;20331;-86
2022/02/20 04:18:29;;;;;;;2.08;2.08;;;5.60;99.90;;;;;;4911145;29;20192;-86
2022/02/20 04:20:55;;;;;;;2.50;2.37;;;5.50;99.90;;;;;;4913279;29;20275;-85
2022/02/20 04:23:22;;;;;;;2.43;2.27;;;5.00;99.90;;;;;;4913157;29;20212;-85
2022/02/20 04:25:47;;;;;;;4.70;1.60;;;5.40;99.90;;;;;;4920343;29;20603;-86
2022/02/20 04:28:13;;;;;;;1.70;1.70;;;5.50;99.90;;;;;;4895542;29;20472;-87
2022/02/20 04:30:39;;;;;;;2.90;2.15;;;5.50;99.90;;;;;;4910209;29;20176;-85
2022/02/20 04:33:05;;;;;;;2.27;2.17;;;5.50;99.90;;;;;;4910870;29;20681;-86
2022/02/20 04:35:33;;;;;;;5.13;2.20;;;5.60;99.90;;;;;;4892932;29;20184;-86
2022/02/20 04:37:58;;;;;;;1.80;1.70;;;5.60;99.90;;;;;;4912858;29;20290;-86
2022/02/20 04:40:24;;;;;;;5.70;2.23;;;5.60;99.90;;;;;;4912989;29;20849;-86
2022/02/20 04:42:51;;;;;;;2.00;1.80;;;6.10;99.90;;;;;;4893847;29;20223;-86
2022/02/20 04:45:20;;;;;;;3.25;2.08;;;5.50;99.90;;;;;;4904942;29;20185;-86
2022/02/20 04:47:45;;;;;;;3.42;1.85;;;5.60;99.90;;;;;;4911179;29;20196;-85
2022/02/20 04:50:11;;;;;;;3.53;3.23;;;5.40;99.90;;;;;;4913086;29;20191;-86
2022/02/20 04:52:37;;;;;;;10.40;2.27;;;5.30;99.90;;;;;;4894031;29;20447;-86
2022/02/20 04:55:03;;;;;;;3.93;2.00;;;5.40;99.90;;;;;;4912728;29;20219;-86
2022/02/20 04:57:38;;;;;;;7.43;2.40;;;5.40;99.90;;;;;;4906256;29;20230;-86
2022/02/20 05:00:05;;;;;;;1.77;1.67;;;5.10;99.90;;;;;;4910079;29;20443;-86
2022/02/20 05:02:33;;;;;;;4.57;3.22;;;5.40;99.90;;;;;;4910225;29;20234;-86
2022/02/20 05:04:59;;;;;;;2.85;2.72;;;5.10;99.90;;;;;;4910582;29;20584;-86
2022/02/20 05:07:24;;;;;;;2.67;2.43;;;5.30;99.90;;;;;;4912249;29;20200;-87
2022/02/20 05:09:50;;;;;;;3.63;3.27;;;5.40;99.90;;;;;;4911790;29;20207;-87
2022/02/20 05:12:16;;;;;;;2.30;2.30;;;5.50;99.90;;;;;;4912669;29;20187;-85
2022/02/20 05:14:41;;;;;;;3.60;3.50;;;5.50;99.90;;;;;;4910590;29;20223;-86
2022/02/20 05:17:07;;;;;;;5.07;3.10;;;5.20;99.90;;;;;;4911903;29;20195;-86
2022/02/20 05:19:33;;;;;;;4.37;2.50;;;5.50;99.90;;;;;;4910130;29;20196;-86
2022/02/20 05:21:58;;;;;;;3.40;3.07;;;5.50;99.90;;;;;;4910867;29;20530;-86
2022/02/20 05:24:24;;;;;;;3.43;3.30;;;5.50;99.90;;;;;;4911156;29;20259;-86
2022/02/20 05:26:49;;;;;;;4.20;3.90;;;5.50;99.90;;;;;;4910775;29;20199;-86
2022/02/20 05:29:18;;;;;;;3.30;3.03;;;5.60;99.90;;;;;;4911454;29;20238;-86
2022/02/20 05:31:44;;;;;;;4.32;3.20;;;5.50;99.90;;;;;;4905681;29;20218;-86
2022/02/20 05:34:09;;;;;;;3.33;2.20;;;5.50;99.90;;;;;;4908345;29;20283;-86
2022/02/20 05:36:35;;;;;;;4.33;3.57;;;5.60;99.90;;;;;;4893976;29;20192;-85
2022/02/20 05:39:00;;;;;;;4.37;4.03;;;5.50;99.90;;;;;;4906037;29;20196;-85
2022/02/20 05:41:26;;;;;;;3.53;3.40;;;5.60;99.90;;;;;;4902971;29;20595;-86
2022/02/20 05:43:54;;;;;;;3.93;3.60;;;5.50;99.90;;;;;;4909741;29;20583;-85
2022/02/20 05:46:20;;;;;;;6.10;3.72;;;5.60;99.90;;;;;;4910761;29;20584;-85
2022/02/20 05:48:46;;;;;;;5.40;3.60;;;5.40;99.90;;;;;;4909655;29;20199;-83
2022/02/20 05:51:11;;;;;;;6.37;4.00;;;5.50;99.90;;;;;;4909821;29;20191;-86
2022/02/20 05:53:37;;;;;;;4.17;3.87;;;5.50;99.90;;;;;;4909539;29;20197;-86
2022/02/20 05:56:03;;;;;;;4.63;4.30;;;5.50;99.90;;;;;;4908492;29;20187;-87
2022/02/20 05:58:29;;;;;;;5.33;4.73;;;5.40;99.90;;;;;;4907251;29;20294;-87
2022/02/20 06:00:54;;;;;;;9.77;5.50;;;5.40;99.90;;;;;;4910226;29;20441;-88
2022/02/20 06:03:20;;;;;;;10.27;5.30;;;5.10;99.90;;;;;;4893533;29;20214;-88
2022/02/20 06:05:45;;;;;;;9.03;6.20;;;4.40;99.90;;;;;;4910508;29;20789;-88
2022/02/20 06:08:11;;;;;;;11.20;6.00;;;5.10;99.90;;;;;;4890281;29;20199;-87
2022/02/20 06:10:37;;;;;;;5.90;5.43;;;5.10;99.90;;;;;;4888408;29;20184;-88
2022/02/20 06:13:03;;;;;;;5.97;5.53;;;5.10;99.90;;;;;;4909399;29;20203;-87
2022/02/20 06:15:29;;;;;;;6.63;4.25;;;4.40;99.90;;;;;;4903670;29;20190;-86
2022/02/20 06:17:54;;;;;;;8.60;5.53;;;5.20;99.90;;;;;;4910210;29;20278;-87
2022/02/20 06:20:20;;;;;;;5.70;4.60;;;5.20;99.90;;;;;;4898514;29;20546;-87
2022/02/20 06:22:45;;;;;;;9.10;5.60;;;5.10;99.90;;;;;;4907893;29;20704;-87
2022/02/20 06:25:11;;;;;;;5.53;4.10;;;5.20;99.90;;;;;;4911237;29;20176;-86
2022/02/20 06:27:37;;;;;;;5.67;5.07;;;5.20;99.90;;;;;;4911058;29;20286;-85
2022/02/20 06:30:03;;;;;;;17.13;6.60;;;4.90;99.90;;;;;;4901191;29;20204;-87
2022/02/20 06:32:28;;;;;;;6.95;6.00;;;5.10;99.90;;;;;;4909619;29;20184;-87
2022/02/20 06:34:54;;;;;;;7.57;4.30;;;5.10;99.90;;;;;;4910322;29;20270;-87
2022/02/20 06:37:20;;;;;;;9.73;5.23;;;4.80;99.90;;;;;;4910996;29;20188;-86
2022/02/20 06:39:48;;;;;;;9.67;5.23;;;5.20;99.90;;;;;;4908535;29;20596;-86
2022/02/20 06:42:15;;;;;;;8.25;5.38;;;5.70;99.90;;;;;;4892248;29;20423;-87
2022/02/20 06:44:41;;;;;;;8.18;5.25;;;5.30;99.90;;;;;;4909897;29;20192;-89
2022/02/20 06:47:09;;;;;;;10.35;5.55;;;5.30;99.90;;;;;;4910843;29;20382;-88
2022/02/20 06:49:35;;;;;;;11.50;6.47;;;5.20;99.90;;;;;;4910860;29;20478;-87
2022/02/20 06:52:00;;;;;;;8.93;5.77;;;5.40;99.90;;;;;;4914717;29;20227;-86
2022/02/20 06:54:27;;;;;;;11.57;6.30;;;5.30;99.90;;;;;;4911299;29;20200;-88
2022/02/20 06:56:55;;;;;;;7.07;5.55;;;5.50;99.90;;;;;;4913339;29;20233;-87
2022/02/20 06:59:21;;;;;;;11.77;4.78;;;5.40;99.90;;;;;;4895065;29;20716;-88
2022/02/20 07:01:46;;;;;;;6.13;5.40;;;5.50;99.90;;;;;;4915324;29;20227;-87
2022/02/20 07:04:12;;;;;;;8.30;5.20;;;5.60;99.90;;;;;;4909502;29;20189;-85
2022/02/20 07:06:38;;;;;;;7.13;5.10;;;5.60;99.90;;;;;;4914796;29;20195;-86
2022/02/20 07:09:04;;;;;;;8.00;5.53;;;5.70;99.90;;;;;;4909252;29;20192;-86
2022/02/20 07:11:30;;;;;;;12.63;6.13;;;5.80;99.90;;;;;;4911390;29;20191;-89
2022/02/20 07:13:56;;;;;;;7.87;4.50;;;5.70;99.90;;;;;;4896241;29;20196;-85
2022/02/20 07:16:24;;;;;;;9.53;5.37;;;5.80;99.90;;;;;;4918872;29;20413;-87
2022/02/20 07:18:50;;;;;;;14.35;6.45;;;5.80;99.90;;;;;;4915532;29;20589;-86
2022/02/20 07:21:15;;;;;;;8.73;4.37;;;5.90;99.90;;;;;;4898336;29;20283;-85
2022/02/20 07:23:41;;;;;;;7.60;3.57;;;6.00;99.90;;;;;;4899145;29;20215;-86
2022/02/20 07:26:06;;;;;;;8.30;4.53;;;5.90;99.90;;;;;;4905011;29;20198;-85
2022/02/20 07:28:35;;;;;;;8.83;3.60;;;6.00;99.90;;;;;;4917469;29;20202;-85
2022/02/20 07:31:01;;;;;;;8.97;5.00;;;6.10;99.90;;;;;;4918912;29;20188;-85
2022/02/20 07:33:26;;;;;;;14.37;4.87;;;6.10;99.90;;;;;;4914581;29;20716;-86
2022/02/20 07:35:55;;;;;;;16.47;6.07;;;6.20;99.90;;;;;;4908842;29;20172;-83
2022/02/20 07:38:20;;;;;;;3.90;1.97;;;6.20;99.90;;;;;;4898662;29;20540;-87
2022/02/20 07:40:46;;;;;;;12.03;4.47;;;8.10;99.90;;;;;;4912101;29;20695;-87
2022/02/20 07:43:11;;;;;;;8.63;2.80;;;6.20;99.90;;;;;;4914647;29;20204;-86
2022/02/20 07:45:37;;;;;;;13.50;4.97;;;5.50;99.90;;;;;;4228010;29;10000741;-84
2022/02/20 07:48:03;;;;;;;4.43;2.47;;;6.30;99.90;;;;;;4911713;29;20443;-86
2022/02/20 07:50:36;;;;;;;7.67;3.90;;;6.40;99.90;;;;;;4908631;29;20886;-85
2022/02/20 07:53:04;;;;;;;6.70;2.60;;;6.40;99.90;;;;;;4912972;29;20478;-84
2022/02/20 07:55:30;;;;;;;10.73;5.13;;;6.40;99.90;;;;;;4905235;29;20449;-85
2022/02/20 07:57:56;;;;;;;10.03;4.57;;;6.50;99.90;;;;;;4912985;29;20479;-84
2022/02/20 08:00:27;;;;;;;12.73;4.43;;;6.50;99.90;;;;;;4911302;29;20997;-84
2022/02/20 08:02:54;;;;;;;14.32;2.65;;;6.60;99.90;;;;;;4913406;29;20486;-84
2022/02/20 08:05:20;;;;;;;13.50;5.00;;;6.60;99.90;;;;;;4890776;29;20299;-84
2022/02/20 08:07:45;;;;;;;3.90;3.60;;;6.60;99.90;;;;;;4912697;29;20543;-84
2022/02/20 08:10:12;;;;;;;7.80;3.77;;;;;;;;;;4888325;29;20904;-86
2022/02/20 08:12:37;;;;;;;9.77;4.30;;;6.80;99.90;;;;;;4912784;29;20215;-85
2022/02/20 08:15:04;;;;;;;8.57;2.67;;;6.50;99.90;;;;;;4893715;29;20436;-80
2022/02/20 08:17:29;;;;;;;8.20;4.23;;;6.90;99.90;;;;;;4911289;29;20192;-83
2022/02/20 08:19:55;;;;;;;13.97;4.07;;;6.80;99.90;;;;;;4900499;29;20654;-83
2022/02/20 08:22:21;;;;;;;5.90;4.47;;;6.90;99.90;;;;;;4890959;29;20678;-84
2022/02/20 08:24:46;;;;;;;8.47;3.67;;;6.90;99.90;;;;;;4901068;29;20858;-85
2022/02/20 08:27:14;;;;;;;8.73;3.57;;;6.90;99.90;;;;;;4893009;29;20286;-84
2022/02/20 08:29:40;;;;;;;4.40;2.30;;;7.10;99.90;;;;;;4897629;29;20200;-85
2022/02/20 08:32:07;;;;;;;5.40;3.23;;;7.10;99.90;;;;;;4891174;29;20504;-84
2022/02/20 08:34:34;;;;;;;14.17;3.73;;;7.20;99.90;;;;;;4898563;29;20978;-86
2022/02/20 08:37:00;;;;;;;6.83;3.60;;;7.20;99.90;;;;;;4900469;29;20505;-84
2022/02/20 08:39:27;;;;;;;2.20;1.93;;;7.30;99.90;;;;;;4897509;29;20439;-83
2022/02/20 08:41:53;;;;;;;4.67;1.40;;;7.50;99.90;;;;;;4909987;29;20506;-85
2022/02/20 08:44:18;;;;;;;8.03;1.40;;;8.10;99.90;;;;;;4901161;29;20452;-84
2022/02/20 08:46:44;;;;;;;3.70;2.50;;;7.70;99.90;;;;;;4927572;29;20539;-84
2022/02/20 08:49:10;;;;;;;7.03;2.83;;;7.80;99.90;;;;;;4921653;29;20199;-83
2022/02/20 08:51:36;;;;;;;2.25;2.05;;;7.80;99.90;;;;;;4893168;29;20271;-85
2022/02/20 08:54:01;;;;;;;5.43;1.17;;;7.90;99.90;;;;;;4903225;29;20693;-84
2022/02/20 08:56:27;;;;;;;2.87;2.33;;;;;;;;;;4890614;29;20184;-86
2022/02/20 08:58:54;;;;;;;2.10;2.00;;;8.00;99.90;;;;;;4893694;29;20868;-85
2022/02/20 09:01:20;;;;;;;4.32;3.05;;;8.00;99.90;;;;;;4909897;29;21001;-84
2022/02/20 09:03:45;;;;;;;6.10;2.30;;;8.10;99.90;;;;;;4891005;29;20588;-85
2022/02/20 09:06:11;;;;;;;3.23;2.57;;;8.10;99.90;;;;;;4910189;29;20177;-86
2022/02/20 09:08:37;;;;;;;5.80;2.00;;;7.40;99.90;;;;;;4907936;29;20222;-84
2022/02/20 09:11:07;;;;;;;2.90;2.53;;;8.30;99.90;;;;;;4909888;29;20179;-84
2022/02/20 09:13:33;;;;;;;2.70;2.57;;;7.10;99.90;;;;;;4906960;29;20922;-86
2022/02/20 09:15:59;;;;;;;2.00;1.90;;;;;;;;;;4892293;29;20597;-85
2022/02/20 09:18:25;;;;;;;8.43;3.13;;;8.30;99.90;;;;;;4889706;29;20192;-84
2022/02/20 09:20:51;;;;;;;7.37;2.60;;;9.00;99.90;;;;;;4885516;29;20961;-85
2022/02/20 09:23:16;;;;;;;5.73;3.60;;;9.50;99.90;;;;;;4910705;29;20487;-84
2022/02/20 09:25:42;;;;;;;2.53;2.33;;;8.20;99.90;;;;;;4916013;29;20192;-83
2022/02/20 09:28:08;;;;;;;1.90;1.70;;;8.30;99.90;;;;;;4916985;29;20760;-85
2022/02/20 09:30:34;;;;;;;4.80;2.40;;;7.40;99.90;;;;;;4910742;29;20222;-85
2022/02/20 09:32:59;;;;;;;1.03;1.03;;;8.40;99.90;;;;;;4911476;29;20192;-85
2022/02/20 09:35:25;;;;;;;5.07;2.33;;;8.00;99.90;;;;;;4908620;29;20448;-85
2022/02/20 09:37:51;;;;;;;8.60;5.80;;;8.50;99.90;;;;;;4910394;29;20200;-84
2022/02/20 09:40:17;;;;;;;5.27;2.53;;;8.40;99.90;;;;;;4905071;29;20440;-85
2022/02/20 09:42:43;;;;;;;5.60;2.93;;;8.40;99.90;;;;;;4910089;29;20483;-84
2022/02/20 09:45:12;;;;;;;2.53;2.20;;;8.20;99.90;;;;;;4896606;29;20443;-86
2022/02/20 09:47:39;;;;;;;4.60;2.03;;;8.50;99.90;;;;;;4912638;29;20480;-84
2022/02/20 09:50:06;;;;;;;5.20;3.40;;;8.50;99.90;;;;;;4909766;29;20199;-84
2022/02/20 09:52:33;;;;;;;3.80;1.97;;;8.50;99.90;;;;;;4911251;29;20842;-83
2022/02/20 09:54:58;;;;;;;2.70;2.60;;;8.50;99.90;;;;;;4908999;29;20462;-85
2022/02/20 09:57:24;;;;;;;2.50;2.40;;;8.50;99.90;;;;;;4911440;29;20711;-82
2022/02/20 09:59:50;;;;;;;3.03;2.50;;;8.60;99.90;;;;;;4909962;29;20200;-85
2022/02/20 10:02:34;;;;;;;1.70;1.70;;;8.60;99.90;;;;;;4909956;29;20502;-85
2022/02/20 10:04:59;;;;;;;2.60;2.20;;;8.70;99.90;;;;;;4909974;29;21267;-83
2022/02/20 10:07:44;;;;;;;2.00;1.73;;;8.70;99.90;;;;;;4911506;29;20440;-82
2022/02/20 10:10:14;;;;;;;4.20;2.30;;;8.70;99.90;;;;;;4902516;29;20235;-87
2022/02/20 10:12:41;;;;;;;6.50;2.80;;;7.20;99.90;;;;;;4909073;29;20440;-85
2022/02/20 10:15:28;;;;;;;7.57;3.17;;;8.80;99.90;;;;;;4904789;29;20440;-84
2022/02/20 10:18:26;;;;;;;2.50;2.30;;;8.70;99.90;;;;;;4906646;29;20195;-83
2022/02/20 10:21:00;;;;;;;2.70;2.50;;;8.70;99.90;;;;;;4898005;29;20466;-85
2022/02/20 10:23:37;;;;;;;1.97;1.87;;;8.80;99.90;;;;;;4909723;29;20475;-84
2022/02/20 10:26:20;;;;;;;1.57;1.37;;;8.80;99.90;;;;;;4902167;29;20719;-81
2022/02/20 10:28:58;;;;;;;2.57;1.80;;;8.90;99.90;;;;;;4909055;29;20432;-85
2022/02/20 10:31:47;;;;;;;3.83;1.83;;;10.30;99.90;;;;;;4907312;29;20451;-86
2022/02/20 10:34:24;;;;;;;4.67;2.83;;;9.00;99.90;;;;;;4907597;29;20976;-81
2022/02/20 10:37:01;;;;;;;1.70;1.60;;;9.00;99.90;;;;;;4897215;29;20459;-84
2022/02/20 10:39:32;;;;;;;2.70;2.60;;;9.00;99.90;;;;;;4902526;29;20938;-84
2022/02/20 10:42:24;;;;;;;4.57;2.07;;;9.00;99.90;;;;;;4897697;29;20511;-85
2022/02/20 10:45:01;;;;;;;1.37;1.30;;;9.00;99.90;;;;;;4903529;29;20439;-80
2022/02/20 10:47:31;;;;;;;2.10;2.00;;;9.10;99.90;;;;;;4907486;29;20471;-85
2022/02/20 10:50:14;;;;;;;1.43;1.43;;;9.10;99.90;;;;;;4908502;29;20860;-86
2022/02/20 10:52:40;;;;;;;3.40;1.90;;;9.20;99.90;;;;;;4885964;29;21162;-85
2022/02/20 10:55:08;;;;;;;3.23;2.10;;;9.20;99.90;;;;;;4908859;29;20563;-84
2022/02/20 10:57:36;;;;;;;1.30;1.30;;;9.30;99.90;;;;;;4905122;29;20212;-83
2022/02/20 11:00:12;;;;;;;3.20;2.50;;;9.30;99.90;;;;;;4907684;29;20454;-84
2022/02/20 11:02:38;;;;;;;9.50;2.57;;;9.40;99.90;;;;;;4906244;29;20995;-86
2022/02/20 11:05:04;;;;;;;5.50;2.50;;;9.50;99.90;;;;;;4907384;29;20522;-85
2022/02/20 11:07:29;;;;;;;7.63;1.80;;;9.50;99.90;;;;;;4904461;29;21013;-85
2022/02/20 11:09:55;;;;;;;5.50;1.47;;;9.60;99.90;;;;;;4907029;29;20738;-84
2022/02/20 11:12:21;;;;;;;3.03;1.90;;;9.70;99.90;;;;;;4903201;29;20286;-83
2022/02/20 11:14:49;;;;;;;1.90;1.73;;;9.70;99.90;;;;;;4907763;29;20271;-84
2022/02/20 11:17:16;;;;;;;2.27;1.90;;;9.80;99.90;;;;;;4905656;29;20487;-83
2022/02/20 11:19:42;;;;;;;3.00;2.30;;;9.80;99.90;;;;;;4907861;29;20443;-81
2022/02/20 11:22:09;;;;;;;1.20;1.20;;;9.80;99.90;;;;;;4905524;29;20578;-83
2022/02/20 11:24:37;;;;;;;5.03;3.10;;;9.80;99.90;;;;;;4907483;29;20436;-85
2022/02/20 11:27:04;;;;;;;5.20;2.10;;;9.70;99.90;;;;;;4906123;29;20460;-84
2022/02/20 11:29:30;;;;;;;5.97;1.93;;;9.80;99.90;;;;;;4907264;29;20463;-85
2022/02/20 11:31:57;;;;;;;0.93;0.93;;;9.80;99.90;;;;;;4905903;29;20476;-87
2022/02/20 11:34:23;;;;;;;4.07;1.57;;;9.70;99.90;;;;;;4909306;29;20196;-85
2022/02/20 11:36:57;;;;;;;2.67;2.27;;;9.70;99.90;;;;;;4910593;29;20458;-84
2022/02/20 11:39:24;;;;;;;7.00;1.90;;;9.60;99.90;;;;;;4902812;29;20458;-83
2022/02/20 11:42:15;;;;;;;3.90;1.70;;;10.10;99.90;;;;;;4906545;29;20528;-86
2022/02/20 11:44:54;;;;;;;4.03;1.83;;;9.60;99.90;;;;;;4952061;23;20580;-87
2022/02/20 11:47:44;;;;;;;2.10;1.50;;;11.20;99.90;;;;;;4916532;29;20495;-87
2022/02/20 11:50:38;;;;;;;;;;;;;;;;;;;;;
2022/02/20 11:53:10;;;;;;;3.20;1.93;;;9.60;99.90;;;;;;4924350;29;20515;-87
2022/02/20 11:55:43;;;;;;;6.70;1.37;;;9.70;99.90;;;;;;4912441;29;20488;-86
2022/02/20 11:58:16;;;;;;;4.20;2.10;;;12.80;99.90;;;;;;4923389;29;20438;-87
2022/02/20 12:00:57;;;;;;;1.63;1.63;;;8.90;99.90;;;;;;4895247;29;20465;-87
2022/02/20 12:03:26;;;;;;;6.33;2.47;;;9.70;99.90;;;;;;4907822;29;20573;-89
2022/02/20 12:06:34;;;;;;;5.80;1.10;;;10.30;99.90;;;;;;4929885;29;20466;-88
2022/02/20 12:09:03;;;;;;;10.20;2.30;;;11.60;99.90;;;;;;4894977;29;20471;-83
2022/02/20 12:12:06;;;;;;;3.23;2.77;;;10.30;99.90;;;;;;4915243;29;20431;-89
2022/02/20 12:14:32;;;;;;;4.20;2.00;;;9.90;99.90;;;;;;4939226;23;21055;-85
2022/02/20 12:17:01;;;;;;;2.20;1.30;;;10.00;99.90;;;;;;4912661;29;20424;-86
2022/02/20 12:19:36;;;;;;;1.67;1.57;;;9.80;99.90;;;;;;4904796;29;20443;-86
2022/02/20 12:22:06;;;;;;;3.23;2.67;;;9.80;99.90;;;;;;4909851;29;20563;-87
2022/02/20 12:24:51;;;;;;;5.37;2.20;;;9.80;99.90;;;;;;4909269;29;20991;-83
2022/02/20 12:27:23;;;;;;;5.30;2.63;;;9.70;99.90;;;;;;4898939;29;20452;-87
2022/02/20 12:29:51;;;;;;;2.63;2.10;;;9.70;99.90;;;;;;4898888;29;20837;-87
2022/02/20 12:32:24;;;;;;;6.70;1.57;;;9.70;99.90;;;;;;4904760;29;20424;-86
2022/02/20 12:34:50;;;;;;;4.83;2.37;;;9.80;99.90;;;;;;4905378;29;20537;-86
2022/02/20 12:37:21;;;;;;;9.57;2.27;;;11.50;99.90;;;;;;4904259;29;20916;-86
2022/02/20 12:39:53;;;;;;;4.03;2.70;;;9.90;99.90;;;;;;4910730;29;20200;-86
2022/02/20 12:42:19;;;;;;;6.07;2.40;;;9.80;99.90;;;;;;4907412;29;20575;-85
2022/02/20 12:44:45;;;;;;;3.60;1.93;;;9.80;99.90;;;;;;4910784;29;20870;-88
2022/02/20 12:47:10;;;;;;;9.90;3.93;;;9.80;99.90;;;;;;4898753;29;20515;-82
2022/02/20 12:49:41;;;;;;;1.90;1.40;;;9.70;99.90;;;;;;4899346;29;20276;-85
2022/02/20 12:52:09;;;;;;;8.50;2.80;;;9.80;99.90;;;;;;4899098;29;20268;-85
2022/02/20 12:54:35;;;;;;;6.40;1.70;;;9.70;99.90;;;;;;4913808;29;20782;-86
2022/02/20 12:57:05;;;;;;;1.90;1.80;;;10.60;99.90;;;;;;4906815;29;20523;-87
2022/02/20 12:59:31;;;;;;;6.97;2.70;;;9.80;99.90;;;;;;4911479;29;20503;-87
2022/02/20 13:02:05;;;;;;;2.97;2.30;;;9.70;99.90;;;;;;4895869;29;20891;-89